Rebel Creek, Nevada
Current Conditions -  °F | °C
As of 6:56 AM on Friday 19 Dec 2014 (Local Time) from KWMC Reporting Station
Broken Clouds Broken Clouds  
Wind Chill: 29°   Ceiling: 6500
Heat Index: 36°   Visibility: 10mi
Dew Point: 28°   Wind: 9mph
Humidity: 73%   Direction: 200°SSW
Pressure: 30.08"   Gusts: NA
Location:  41.7393°N, 118.104°W
Report Text: KWMC 191456Z AUTO 20008KT 10SM BKN065 02/M02 A3008 RMK AO2 SLP193 60000 T00221022 58006 $
Loading
Personal Weather Stations






























Interactive Weather Map New forecast layout! Learn more

10-Day Weather Forecast

Advertisements
Track Severe Weather on mobile